Cfl Racer — PJMV — position and weather

sailwx.info

Track history (hours):
 
Tides and Currents Weather Stations Pressure Air Temp Water Temp Dewpoint Dewpoint Depression Visibility Wind Speed Wind Dir Waves Ship Positions

Cfl Racer

Last reported at 2014-Nov-25 22:33 UTC. Time now 2014-Nov-26 06:29 UTC.
Position N 53°54' E 000°35'.

Length 83 m; draft 4.7 m.

Type: Cargo ship. MMSI: 306762000.

Date/timePositionNaut miles runAvg speedWind from/ knotsBaromVisibWave heightAir tempDewpointWater temp
2014-Nov-25 22:33N 53°54' E 000°35'9 9.5
2014-Nov-25 21:33N 54°01' E 000°24'1010.1
2014-Nov-25 20:33N 54°08' E 000°11'1110.9
2014-Nov-25 19:33N 54°15' W 000°02'1111.4
2014-Nov-25 18:33N 54°23' W 000°17'1211.9
2014-Nov-25 17:33N 54°32' W 000°31'1811.9
2014-Nov-25 16:05N 54°39' W 000°59'510.0
2014-Nov-25 15:33N 54°39' W 001°08'3 1.5
2014-Nov-25 13:30N 54°36' W 001°09'0 0.0
2014-Nov-25 12:30N 54°36' W 001°09'0 0.0
2014-Nov-25 11:30N 54°36' W 001°09'0 0.0
2014-Nov-25 10:33N 54°36' W 001°09'0 0.0
2014-Nov-25 08:33N 54°36' W 001°09'10 4.4
2014-Nov-25 06:20N 54°46' W 001°11'6 0.5
2014-Nov-24 18:24N 54°41' W 001°07'1010.5
2014-Nov-24 17:28N 54°49' W 001°16'2 1.1
2014-Nov-24 15:24N 54°50' W 001°20'0 0.0
2014-Nov-24 14:30N 54°50' W 001°20'0 0.0
2014-Nov-24 13:30N 54°50' W 001°20'0 0.0
2014-Nov-24 12:33N 54°50' W 001°20'0 0.0
2014-Nov-24 11:33N 54°50' W 001°20'0 0.0
2014-Nov-24 10:33N 54°50' W 001°20'0 0.0
2014-Nov-24 09:18N 54°50' W 001°20'0 0.0
2014-Nov-24 08:21N 54°50' W 001°20'3 0.6
2014-Nov-24 03:32N 54°49' W 001°15'9 9.7
2014-Nov-24 02:33N 54°44' W 001°01'10 9.7
2014-Nov-24 01:32N 54°38' W 000°47'1210.0
2014-Nov-24 00:21N 54°31' W 000°30'910.9
2014-Nov-23 23:33N 54°24' W 000°21'1111.5
2014-Nov-23 22:33N 54°15' W 000°10'1211.9
2014-Nov-23 21:33N 54°06' E 000°02'1111.2
2014-Nov-23 20:33N 53°57' E 000°14'1010.3
2014-Nov-23 19:33N 53°49' E 000°25'48 9.1
2014-Nov-23 14:16N 53°11' E 001°15'811.4
2014-Nov-23 13:33N 53°04' E 001°24'1211.8
2014-Nov-23 12:33N 52°56' E 001°37'10110.1
2014-Nov-23 02:31N 51°38' E 003°22'1111.4
2014-Nov-23 01:33N 51°28' E 003°31'8 8.1
2014-Nov-23 00:33N 51°24' E 003°42'6 6.2
2014-Nov-22 23:33N 51°20' E 003°49'6 5.6
2014-Nov-22 22:34N 51°14' E 003°49'4 3.9
2014-Nov-22 21:33N 51°11' E 003°48'0 0.0
2014-Nov-22 20:33N 51°11' E 003°48'0 0.0
2014-Nov-22 19:33N 51°11' E 003°48'0 0.0
2014-Nov-22 18:33N 51°11' E 003°48'0 0.0
2014-Nov-22 17:33N 51°11' E 003°48'0 0.0
2014-Nov-22 16:33N 51°11' E 003°48'0 0.0
2014-Nov-22 15:33N 51°11' E 003°48'0 0.0
2014-Nov-22 14:33N 51°11' E 003°48'0 0.0
2014-Nov-22 13:33N 51°11' E 003°48'0 0.0
2014-Nov-22 12:33N 51°11' E 003°48'0 0.0
2014-Nov-22 11:33N 51°11' E 003°48'0 0.0
2014-Nov-22 10:33N 51°11' E 003°48'0 0.1
2014-Nov-22 09:33N 51°11' E 003°48'0 0.1
2014-Nov-22 08:33N 51°11' E 003°48'0 0.2
2014-Nov-22 07:33N 51°10' E 003°48'1 1.1
2014-Nov-22 06:29N 51°09' E 003°47'0 0.0
2014-Nov-22 05:29N 51°09' E 003°47'0 0.0
2014-Nov-22 04:29N 51°09' E 003°47'0 0.0
2014-Nov-22 03:32N 51°09' E 003°47'0 0.0
2014-Nov-22 02:29N 51°09' E 003°47'0 0.0
2014-Nov-22 01:32N 51°09' E 003°47'0 0.0
2014-Nov-22 00:29N 51°09' E 003°47'0 0.0
2014-Nov-21 23:29N 51°09' E 003°47'0 0.0
2014-Nov-21 22:23N 51°09' E 003°47'0 0.0
2014-Nov-21 21:32N 51°09' E 003°47'0 0.0
2014-Nov-21 20:32N 51°09' E 003°47'0 0.0
2014-Nov-21 19:29N 51°09' E 003°47'0 0.0
2014-Nov-21 18:32N 51°09' E 003°47'0 0.0
2014-Nov-21 17:32N 51°09' E 003°47'0 0.0
2014-Nov-21 16:32N 51°09' E 003°47'0 0.0
2014-Nov-21 15:32N 51°09' E 003°47'0 0.0
2014-Nov-21 14:26N 51°09' E 003°47'0 0.0
2014-Nov-21 13:29N 51°09' E 003°47'0 0.0
2014-Nov-21 12:29N 51°09' E 003°47'0 0.0
2014-Nov-21 11:29N 51°09' E 003°47'0 0.0
2014-Nov-21 10:26N 51°09' E 003°47'0 0.0
2014-Nov-21 09:29N 51°09' E 003°47'0 0.0
2014-Nov-21 08:32N 51°09' E 003°47'0 0.0
2014-Nov-21 07:29N 51°09' E 003°47'0 0.0
2014-Nov-21 06:32N 51°09' E 003°47'0 0.0
2014-Nov-21 05:32N 51°09' E 003°47'0 0.0
2014-Nov-21 04:32N 51°09' E 003°47'0 0.0
2014-Nov-21 03:32N 51°09' E 003°47'0 0.0
2014-Nov-21 02:29N 51°09' E 003°47'0 0.0
2014-Nov-21 01:23N 51°09' E 003°47'0 0.0
2014-Nov-21 00:23N 51°09' E 003°47'0 0.0
2014-Nov-20 23:20N 51°09' E 003°47'0 0.0
2014-Nov-20 22:26N 51°09' E 003°47'0 0.0
2014-Nov-20 21:32N 51°09' E 003°47'0 0.0
2014-Nov-20 20:29N 51°09' E 003°47'0 0.0
2014-Nov-20 19:29N 51°09' E 003°47'0 0.0
2014-Nov-20 18:17N 51°09' E 003°47'0 0.0
2014-Nov-20 17:32N 51°09' E 003°47'0 0.0
2014-Nov-20 16:29N 51°09' E 003°47'0 0.0
2014-Nov-20 15:32N 51°09' E 003°47'0 0.0
2014-Nov-20 14:29N 51°09' E 003°47'0 0.0
2014-Nov-20 13:17N 51°09' E 003°47'0 0.0
2014-Nov-20 12:32N 51°09' E 003°47'0 0.0
2014-Nov-20 11:29N 51°09' E 003°47'0 0.0
2014-Nov-20 10:29N 51°09' E 003°47'0 0.0
2014-Nov-20 09:23N 51°09' E 003°47'0 0.0
2014-Nov-20 08:29N 51°09' E 003°47'0 0.0
2014-Nov-20 07:29N 51°09' E 003°47'0 0.0
2014-Nov-20 06:29N 51°09' E 003°47'0 0.0
2014-Nov-20 05:17N 51°09' E 003°47'0 0.0
2014-Nov-20 04:27N 51°09' E 003°47'0 0.0
2014-Nov-20 03:32N 51°09' E 003°47'0 0.0
2014-Nov-20 02:29N 51°09' E 003°47'0 0.0
2014-Nov-20 01:29N 51°09' E 003°47'0 0.0
2014-Nov-20 00:29N 51°09' E 003°47'0 0.0
2014-Nov-19 23:29N 51°09' E 003°47'0 0.0
2014-Nov-19 22:17N 51°09' E 003°47'0 0.0
2014-Nov-19 21:29N 51°09' E 003°47'0 0.0
2014-Nov-19 20:29N 51°09' E 003°47'0 0.0
2014-Nov-19 19:26N 51°09' E 003°47'0 0.0
2014-Nov-19 18:29N 51°09' E 003°47'0 0.0
2014-Nov-19 17:29N 51°09' E 003°47'0 0.0
2014-Nov-19 16:29N 51°09' E 003°47'0 0.0
2014-Nov-19 15:29N 51°09' E 003°47'0 0.0
2014-Nov-19 14:29N 51°09' E 003°47'0 0.0
2014-Nov-19 13:29N 51°09' E 003°47'0 0.0
2014-Nov-19 12:29N 51°09' E 003°47'0 0.0
2014-Nov-19 11:26N 51°09' E 003°47'0 0.0
2014-Nov-19 10:17N 51°09' E 003°47'0 0.0
2014-Nov-19 09:29N 51°09' E 003°47'0 0.0
2014-Nov-19 08:29N 51°09' E 003°47'0 0.0
2014-Nov-19 07:32N 51°09' E 003°47'0 0.0
2014-Nov-19 06:26N 51°09' E 003°47'0 0.0
2014-Nov-19 05:29N 51°09' E 003°47'0 0.0
2014-Nov-19 04:29N 51°09' E 003°47'0 0.0
2014-Nov-19 03:29N 51°09' E 003°47'0 0.0
2014-Nov-19 02:32N 51°09' E 003°47'0 0.0
2014-Nov-19 01:32N 51°09' E 003°47'0 0.0
2014-Nov-19 00:29N 51°09' E 003°47'0 0.0
2014-Nov-18 23:26N 51°09' E 003°47'0 0.0
2014-Nov-18 22:29N 51°09' E 003°47'0 0.0
2014-Nov-18 21:32N 51°09' E 003°47'0 0.0
2014-Nov-18 20:32N 51°09' E 003°47'0 0.0
2014-Nov-18 19:32N 51°09' E 003°47'0 0.0
2014-Nov-18 18:32N 51°09' E 003°47'0 0.0
2014-Nov-18 17:29N 51°09' E 003°47'0 0.0
2014-Nov-18 16:29N 51°09' E 003°47'0 0.0
2014-Nov-18 15:29N 51°09' E 003°47'0 0.0
2014-Nov-18 14:32N 51°09' E 003°47'0 0.0
2014-Nov-18 13:26N 51°09' E 003°47'0 0.0
2014-Nov-18 12:26N 51°09' E 003°47'0 0.0
2014-Nov-18 11:32N 51°09' E 003°47'0 0.0
2014-Nov-18 10:26N 51°09' E 003°47'0 0.0
2014-Nov-18 09:23N 51°09' E 003°47'0 0.0
2014-Nov-18 08:32N 51°09' E 003°47'0 0.0
2014-Nov-18 07:26N 51°09' E 003°47'0 0.0
2014-Nov-18 06:29N 51°09' E 003°47'0 0.0
2014-Nov-18 05:26N 51°09' E 003°47'0 0.0
2014-Nov-18 04:32N 51°09' E 003°47'0 0.0
2014-Nov-18 03:26N 51°09' E 003°47'0 0.0
2014-Nov-18 02:29N 51°09' E 003°47'0 0.0
2014-Nov-18 01:29N 51°09' E 003°47'0 0.0
2014-Nov-18 00:29N 51°09' E 003°47'0 0.0
2014-Nov-17 23:29N 51°09' E 003°47'0 0.0
2014-Nov-17 22:23N 51°09' E 003°47'0 0.0
2014-Nov-17 21:32N 51°09' E 003°47'0 0.0
2014-Nov-17 20:29N 51°09' E 003°47'0 0.0
2014-Nov-17 19:29N 51°09' E 003°47'0 0.0
2014-Nov-17 18:32N 51°09' E 003°47'0 0.0
2014-Nov-17 17:32N 51°09' E 003°47'0 0.0
2014-Nov-17 16:29N 51°09' E 003°47'0 0.0
2014-Nov-17 15:29N 51°09' E 003°47'0 0.0
2014-Nov-17 14:28N 51°09' E 003°47'0 0.0
2014-Nov-17 13:16N 51°09' E 003°47'0 0.0
2014-Nov-17 12:32N 51°09' E 003°47'0 0.0
2014-Nov-17 11:29N 51°09' E 003°47'0 0.0
2014-Nov-17 10:28N 51°09' E 003°47'0 0.0
2014-Nov-17 09:32N 51°09' E 003°47'0 0.0
2014-Nov-17 08:29N 51°09' E 003°47'0 0.0
2014-Nov-17 07:28N 51°09' E 003°47'0 0.0
2014-Nov-17 06:28N 51°09' E 003°47'0 0.0
2014-Nov-17 05:32N 51°09' E 003°47'0 0.0
2014-Nov-17 04:29N 51°09' E 003°47'0 0.0
2014-Nov-17 03:29N 51°09' E 003°47'0 0.0
2014-Nov-17 02:28N 51°09' E 003°47'0 0.0
2014-Nov-17 01:23N 51°09' E 003°47'0 0.0
2014-Nov-17 00:29N 51°09' E 003°47'0 0.0
2014-Nov-16 23:28N 51°09' E 003°47'0 0.0
2014-Nov-16 22:28N 51°09' E 003°47'0 0.0
2014-Nov-16 21:22N 51°09' E 003°47'0 0.0
2014-Nov-16 20:29N 51°09' E 003°47'0 0.0
2014-Nov-16 19:16N 51°09' E 003°47'0 0.0
2014-Nov-16 18:29N 51°09' E 003°47'0 0.0
2014-Nov-16 17:28N 51°09' E 003°47'0 0.0
2014-Nov-16 16:32N 51°09' E 003°47'0 0.0
2014-Nov-16 15:31N 51°09' E 003°47'0 0.0
2014-Nov-16 14:29N 51°09' E 003°47'0 0.0
2014-Nov-16 13:25N 51°09' E 003°47'0 0.0
2014-Nov-16 12:31N 51°09' E 003°47'0 0.0
2014-Nov-16 11:28N 51°09' E 003°47'0 0.0
2014-Nov-16 10:22N 51°09' E 003°47'4 5.3
2014-Nov-16 09:33N 51°14' E 003°48'6 6.2
2014-Nov-16 08:34N 51°20' E 003°49'3 3.4
2014-Nov-16 07:33N 51°22' E 003°45'1010.3
2014-Nov-16 06:34N 51°25' E 003°29'10 9.7
2014-Nov-16 05:33N 51°23' E 003°14'1110.8
2014-Nov-16 04:32N 51°21' E 002°56'1010.3
2014-Nov-16 03:33N 51°22' E 002°40'6 5.8
2014-Nov-16 02:33N 51°22' E 002°31'6 5.9
2014-Nov-16 01:33N 51°20' E 002°22'10 9.6
2014-Nov-16 00:34N 51°20' E 002°07'1111.4
2014-Nov-15 23:33N 51°28' E 001°52'1111.5
2014-Nov-15 22:34N 51°29' E 001°34'  
Track history (hours):
 
Tides and Currents Weather Stations Pressure Air Temp Water Temp Dewpoint Dewpoint Depression Visibility Wind Speed Wind Dir Waves Ship Positions

Cfl Racer

Last reported at 2014-Nov-25 22:33 UTC. Time now 2014-Nov-26 06:29 UTC.
Position N 53°54' E 000°35'.

Length 83 m; draft 4.7 m.

Type: Cargo ship. MMSI: 306762000.

Date/timePositionNaut miles runAvg speedWind from/ knotsBaromVisibWave heightAir tempDewpointWater temp
2014-Nov-25 22:33N 53°54' E 000°35'9 9.5
2014-Nov-25 21:33N 54°01' E 000°24'1010.1
2014-Nov-25 20:33N 54°08' E 000°11'1110.9
2014-Nov-25 19:33N 54°15' W 000°02'1111.4
2014-Nov-25 18:33N 54°23' W 000°17'1211.9
2014-Nov-25 17:33N 54°32' W 000°31'1811.9
2014-Nov-25 16:05N 54°39' W 000°59'510.0
2014-Nov-25 15:33N 54°39' W 001°08'3 1.5
2014-Nov-25 13:30N 54°36' W 001°09'0 0.0
2014-Nov-25 12:30N 54°36' W 001°09'0 0.0
2014-Nov-25 11:30N 54°36' W 001°09'0 0.0
2014-Nov-25 10:33N 54°36' W 001°09'0 0.0
2014-Nov-25 08:33N 54°36' W 001°09'10 4.4
2014-Nov-25 06:20N 54°46' W 001°11'6 0.5
2014-Nov-24 18:24N 54°41' W 001°07'1010.5
2014-Nov-24 17:28N 54°49' W 001°16'2 1.1
2014-Nov-24 15:24N 54°50' W 001°20'0 0.0
2014-Nov-24 14:30N 54°50' W 001°20'0 0.0
2014-Nov-24 13:30N 54°50' W 001°20'0 0.0
2014-Nov-24 12:33N 54°50' W 001°20'0 0.0
2014-Nov-24 11:33N 54°50' W 001°20'0 0.0
2014-Nov-24 10:33N 54°50' W 001°20'0 0.0
2014-Nov-24 09:18N 54°50' W 001°20'0 0.0
2014-Nov-24 08:21N 54°50' W 001°20'3 0.6
2014-Nov-24 03:32N 54°49' W 001°15'9 9.7
2014-Nov-24 02:33N 54°44' W 001°01'10 9.7
2014-Nov-24 01:32N 54°38' W 000°47'1210.0
2014-Nov-24 00:21N 54°31' W 000°30'910.9
2014-Nov-23 23:33N 54°24' W 000°21'1111.5
2014-Nov-23 22:33N 54°15' W 000°10'1211.9
2014-Nov-23 21:33N 54°06' E 000°02'1111.2
2014-Nov-23 20:33N 53°57' E 000°14'1010.3
2014-Nov-23 19:33N 53°49' E 000°25'48 9.1
2014-Nov-23 14:16N 53°11' E 001°15'811.4
2014-Nov-23 13:33N 53°04' E 001°24'1211.8
2014-Nov-23 12:33N 52°56' E 001°37'10110.1
2014-Nov-23 02:31N 51°38' E 003°22'1111.4
2014-Nov-23 01:33N 51°28' E 003°31'8 8.1
2014-Nov-23 00:33N 51°24' E 003°42'6 6.2
2014-Nov-22 23:33N 51°20' E 003°49'6 5.6
2014-Nov-22 22:34N 51°14' E 003°49'4 3.9
2014-Nov-22 21:33N 51°11' E 003°48'0 0.0
2014-Nov-22 20:33N 51°11' E 003°48'0 0.0
2014-Nov-22 19:33N 51°11' E 003°48'0 0.0
2014-Nov-22 18:33N 51°11' E 003°48'0 0.0
2014-Nov-22 17:33N 51°11' E 003°48'0 0.0
2014-Nov-22 16:33N 51°11' E 003°48'0 0.0
2014-Nov-22 15:33N 51°11' E 003°48'0 0.0
2014-Nov-22 14:33N 51°11' E 003°48'0 0.0
2014-Nov-22 13:33N 51°11' E 003°48'0 0.0
2014-Nov-22 12:33N 51°11' E 003°48'0 0.0
2014-Nov-22 11:33N 51°11' E 003°48'0 0.0
2014-Nov-22 10:33N 51°11' E 003°48'0 0.1
2014-Nov-22 09:33N 51°11' E 003°48'0 0.1
2014-Nov-22 08:33N 51°11' E 003°48'0 0.2
2014-Nov-22 07:33N 51°10' E 003°48'1 1.1
2014-Nov-22 06:29N 51°09' E 003°47'0 0.0
2014-Nov-22 05:29N 51°09' E 003°47'0 0.0
2014-Nov-22 04:29N 51°09' E 003°47'0 0.0
2014-Nov-22 03:32N 51°09' E 003°47'0 0.0
2014-Nov-22 02:29N 51°09' E 003°47'0 0.0
2014-Nov-22 01:32N 51°09' E 003°47'0 0.0
2014-Nov-22 00:29N 51°09' E 003°47'0 0.0
2014-Nov-21 23:29N 51°09' E 003°47'0 0.0
2014-Nov-21 22:23N 51°09' E 003°47'0 0.0
2014-Nov-21 21:32N 51°09' E 003°47'0 0.0
2014-Nov-21 20:32N 51°09' E 003°47'0 0.0
2014-Nov-21 19:29N 51°09' E 003°47'0 0.0
2014-Nov-21 18:32N 51°09' E 003°47'0 0.0
2014-Nov-21 17:32N 51°09' E 003°47'0 0.0
2014-Nov-21 16:32N 51°09' E 003°47'0 0.0
2014-Nov-21 15:32N 51°09' E 003°47'0 0.0
2014-Nov-21 14:26N 51°09' E 003°47'0 0.0
2014-Nov-21 13:29N 51°09' E 003°47'0 0.0
2014-Nov-21 12:29N 51°09' E 003°47'0 0.0
2014-Nov-21 11:29N 51°09' E 003°47'0 0.0
2014-Nov-21 10:26N 51°09' E 003°47'0 0.0
2014-Nov-21 09:29N 51°09' E 003°47'0 0.0
2014-Nov-21 08:32N 51°09' E 003°47'0 0.0
2014-Nov-21 07:29N 51°09' E 003°47'0 0.0
2014-Nov-21 06:32N 51°09' E 003°47'0 0.0
2014-Nov-21 05:32N 51°09' E 003°47'0 0.0
2014-Nov-21 04:32N 51°09' E 003°47'0 0.0
2014-Nov-21 03:32N 51°09' E 003°47'0 0.0
2014-Nov-21 02:29N 51°09' E 003°47'0 0.0
2014-Nov-21 01:23N 51°09' E 003°47'0 0.0
2014-Nov-21 00:23N 51°09' E 003°47'0 0.0
2014-Nov-20 23:20N 51°09' E 003°47'0 0.0
2014-Nov-20 22:26N 51°09' E 003°47'0 0.0
2014-Nov-20 21:32N 51°09' E 003°47'0 0.0
2014-Nov-20 20:29N 51°09' E 003°47'0 0.0
2014-Nov-20 19:29N 51°09' E 003°47'0 0.0
2014-Nov-20 18:17N 51°09' E 003°47'0 0.0
2014-Nov-20 17:32N 51°09' E 003°47'0 0.0
2014-Nov-20 16:29N 51°09' E 003°47'0 0.0
2014-Nov-20 15:32N 51°09' E 003°47'0 0.0
2014-Nov-20 14:29N 51°09' E 003°47'0 0.0
2014-Nov-20 13:17N 51°09' E 003°47'0 0.0
2014-Nov-20 12:32N 51°09' E 003°47'0 0.0
2014-Nov-20 11:29N 51°09' E 003°47'0 0.0
2014-Nov-20 10:29N 51°09' E 003°47'0 0.0
2014-Nov-20 09:23N 51°09' E 003°47'0 0.0
2014-Nov-20 08:29N 51°09' E 003°47'0 0.0
2014-Nov-20 07:29N 51°09' E 003°47'0 0.0
2014-Nov-20 06:29N 51°09' E 003°47'0 0.0
2014-Nov-20 05:17N 51°09' E 003°47'0 0.0
2014-Nov-20 04:27N 51°09' E 003°47'0 0.0
2014-Nov-20 03:32N 51°09' E 003°47'0 0.0
2014-Nov-20 02:29N 51°09' E 003°47'0 0.0
2014-Nov-20 01:29N 51°09' E 003°47'0 0.0
2014-Nov-20 00:29N 51°09' E 003°47'0 0.0
2014-Nov-19 23:29N 51°09' E 003°47'0 0.0
2014-Nov-19 22:17N 51°09' E 003°47'0 0.0
2014-Nov-19 21:29N 51°09' E 003°47'0 0.0
2014-Nov-19 20:29N 51°09' E 003°47'0 0.0
2014-Nov-19 19:26N 51°09' E 003°47'0 0.0
2014-Nov-19 18:29N 51°09' E 003°47'0 0.0
2014-Nov-19 17:29N 51°09' E 003°47'0 0.0
2014-Nov-19 16:29N 51°09' E 003°47'0 0.0
2014-Nov-19 15:29N 51°09' E 003°47'0 0.0
2014-Nov-19 14:29N 51°09' E 003°47'0 0.0
2014-Nov-19 13:29N 51°09' E 003°47'0 0.0
2014-Nov-19 12:29N 51°09' E 003°47'0 0.0
2014-Nov-19 11:26N 51°09' E 003°47'0 0.0
2014-Nov-19 10:17N 51°09' E 003°47'0 0.0
2014-Nov-19 09:29N 51°09' E 003°47'0 0.0
2014-Nov-19 08:29N 51°09' E 003°47'0 0.0
2014-Nov-19 07:32N 51°09' E 003°47'0 0.0
2014-Nov-19 06:26N 51°09' E 003°47'0 0.0
2014-Nov-19 05:29N 51°09' E 003°47'0 0.0
2014-Nov-19 04:29N 51°09' E 003°47'0 0.0
2014-Nov-19 03:29N 51°09' E 003°47'0 0.0
2014-Nov-19 02:32N 51°09' E 003°47'0 0.0
2014-Nov-19 01:32N 51°09' E 003°47'0 0.0
2014-Nov-19 00:29N 51°09' E 003°47'0 0.0
2014-Nov-18 23:26N 51°09' E 003°47'0 0.0
2014-Nov-18 22:29N 51°09' E 003°47'0 0.0
2014-Nov-18 21:32N 51°09' E 003°47'0 0.0
2014-Nov-18 20:32N 51°09' E 003°47'0 0.0
2014-Nov-18 19:32N 51°09' E 003°47'0 0.0
2014-Nov-18 18:32N 51°09' E 003°47'0 0.0
2014-Nov-18 17:29N 51°09' E 003°47'0 0.0
2014-Nov-18 16:29N 51°09' E 003°47'0 0.0
2014-Nov-18 15:29N 51°09' E 003°47'0 0.0
2014-Nov-18 14:32N 51°09' E 003°47'0 0.0
2014-Nov-18 13:26N 51°09' E 003°47'0 0.0
2014-Nov-18 12:26N 51°09' E 003°47'0 0.0
2014-Nov-18 11:32N 51°09' E 003°47'0 0.0
2014-Nov-18 10:26N 51°09' E 003°47'0 0.0
2014-Nov-18 09:23N 51°09' E 003°47'0 0.0
2014-Nov-18 08:32N 51°09' E 003°47'0 0.0
2014-Nov-18 07:26N 51°09' E 003°47'0 0.0
2014-Nov-18 06:29N 51°09' E 003°47'0 0.0
2014-Nov-18 05:26N 51°09' E 003°47'0 0.0
2014-Nov-18 04:32N 51°09' E 003°47'0 0.0
2014-Nov-18 03:26N 51°09' E 003°47'0 0.0
2014-Nov-18 02:29N 51°09' E 003°47'0 0.0
2014-Nov-18 01:29N 51°09' E 003°47'0 0.0
2014-Nov-18 00:29N 51°09' E 003°47'0 0.0
2014-Nov-17 23:29N 51°09' E 003°47'0 0.0
2014-Nov-17 22:23N 51°09' E 003°47'0 0.0
2014-Nov-17 21:32N 51°09' E 003°47'0 0.0
2014-Nov-17 20:29N 51°09' E 003°47'0 0.0
2014-Nov-17 19:29N 51°09' E 003°47'0 0.0
2014-Nov-17 18:32N 51°09' E 003°47'0 0.0
2014-Nov-17 17:32N 51°09' E 003°47'0 0.0
2014-Nov-17 16:29N 51°09' E 003°47'0 0.0
2014-Nov-17 15:29N 51°09' E 003°47'0 0.0
2014-Nov-17 14:28N 51°09' E 003°47'0 0.0
2014-Nov-17 13:16N 51°09' E 003°47'0 0.0
2014-Nov-17 12:32N 51°09' E 003°47'0 0.0
2014-Nov-17 11:29N 51°09' E 003°47'0 0.0
2014-Nov-17 10:28N 51°09' E 003°47'0 0.0
2014-Nov-17 09:32N 51°09' E 003°47'0 0.0
2014-Nov-17 08:29N 51°09' E 003°47'0 0.0
2014-Nov-17 07:28N 51°09' E 003°47'0 0.0
2014-Nov-17 06:28N 51°09' E 003°47'0 0.0
2014-Nov-17 05:32N 51°09' E 003°47'0 0.0
2014-Nov-17 04:29N 51°09' E 003°47'0 0.0
2014-Nov-17 03:29N 51°09' E 003°47'0 0.0
2014-Nov-17 02:28N 51°09' E 003°47'0 0.0
2014-Nov-17 01:23N 51°09' E 003°47'0 0.0
2014-Nov-17 00:29N 51°09' E 003°47'0 0.0
2014-Nov-16 23:28N 51°09' E 003°47'0 0.0
2014-Nov-16 22:28N 51°09' E 003°47'0 0.0
2014-Nov-16 21:22N 51°09' E 003°47'0 0.0
2014-Nov-16 20:29N 51°09' E 003°47'0 0.0
2014-Nov-16 19:16N 51°09' E 003°47'0 0.0
2014-Nov-16 18:29N 51°09' E 003°47'0 0.0
2014-Nov-16 17:28N 51°09' E 003°47'0 0.0
2014-Nov-16 16:32N 51°09' E 003°47'0 0.0
2014-Nov-16 15:31N 51°09' E 003°47'0 0.0
2014-Nov-16 14:29N 51°09' E 003°47'0 0.0
2014-Nov-16 13:25N 51°09' E 003°47'0 0.0
2014-Nov-16 12:31N 51°09' E 003°47'0 0.0
2014-Nov-16 11:28N 51°09' E 003°47'0 0.0
2014-Nov-16 10:22N 51°09' E 003°47'4 5.3
2014-Nov-16 09:33N 51°14' E 003°48'6 6.2
2014-Nov-16 08:34N 51°20' E 003°49'3 3.4
2014-Nov-16 07:33N 51°22' E 003°45'1010.3
2014-Nov-16 06:34N 51°25' E 003°29'10 9.7
2014-Nov-16 05:33N 51°23' E 003°14'1110.8
2014-Nov-16 04:32N 51°21' E 002°56'1010.3
2014-Nov-16 03:33N 51°22' E 002°40'6 5.8
2014-Nov-16 02:33N 51°22' E 002°31'6 5.9
2014-Nov-16 01:33N 51°20' E 002°22'10 9.6
2014-Nov-16 00:34N 51°20' E 002°07'1111.4
2014-Nov-15 23:33N 51°28' E 001°52'1111.5
2014-Nov-15 22:34N 51°29' E 001°34'  

Dump ship's entire track history